createdAt,value
2022-08-07T00:11:03.323Z,24.37
2022-08-07T00:31:03.290Z,24.18
2022-08-07T00:51:03.284Z,24.25
2022-08-07T01:11:03.234Z,24.37
2022-08-07T01:31:03.198Z,24.06
2022-08-07T01:51:03.197Z,24.06
2022-08-07T02:11:03.260Z,24.00
2022-08-07T02:31:04.689Z,24.06
2022-08-07T02:51:03.090Z,24.06
2022-08-07T03:11:03.068Z,24.06
2022-08-07T03:31:03.030Z,24.00
2022-08-07T03:51:02.994Z,23.87
2022-08-07T04:11:02.972Z,24.12
2022-08-07T04:31:02.932Z,23.93
2022-08-07T04:51:02.910Z,23.93
2022-08-07T05:11:02.883Z,23.93
2022-08-07T05:31:02.860Z,23.93
2022-08-07T05:51:02.834Z,23.93
2022-08-07T06:11:02.794Z,23.93
2022-08-07T06:31:02.816Z,23.81
2022-08-07T06:51:02.746Z,24.00
2022-08-07T07:11:02.710Z,23.87
2022-08-07T07:31:02.673Z,23.93
2022-08-07T07:51:02.655Z,23.93
2022-08-07T08:11:02.622Z,23.87
2022-08-07T08:31:02.613Z,24.00
2022-08-07T08:51:02.581Z,24.12
2022-08-07T09:11:02.535Z,24.31
2022-08-07T09:31:02.527Z,24.37
2022-08-07T09:51:02.486Z,24.31
2022-08-07T10:11:02.457Z,24.25
2022-08-07T10:31:02.439Z,24.37
2022-08-07T10:51:02.382Z,24.12
2022-08-07T11:11:02.359Z,24.43
2022-08-07T11:31:02.324Z,24.43
2022-08-07T11:51:03.705Z,24.37
2022-08-07T12:11:02.257Z,24.50
2022-08-07T12:31:02.224Z,24.43
2022-08-07T12:51:02.187Z,24.43
2022-08-07T13:11:02.170Z,24.68
2022-08-07T13:31:02.148Z,24.50
2022-08-07T13:51:02.117Z,24.75
2022-08-07T14:11:02.076Z,24.43
2022-08-07T14:31:02.052Z,24.37
2022-08-07T14:51:02.047Z,24.43
2022-08-07T15:11:01.998Z,24.56
2022-08-07T15:31:01.968Z,24.37
2022-08-07T15:51:01.916Z,24.37
2022-08-07T16:11:01.880Z,24.43
2022-08-07T16:31:01.890Z,24.25
2022-08-07T16:51:01.845Z,24.37
2022-08-07T17:11:01.789Z,24.18
2022-08-07T17:31:01.779Z,24.43
2022-08-07T17:51:01.734Z,24.18
2022-08-07T18:11:01.695Z,24.18
2022-08-07T18:31:01.686Z,24.12
2022-08-07T18:51:01.640Z,24.25
2022-08-07T19:11:06.830Z,23.87
2022-08-07T19:31:01.591Z,24.12
2022-08-07T19:51:01.564Z,24.12
2022-08-07T20:11:01.511Z,24.00
2022-08-07T20:31:01.477Z,24.06
2022-08-07T20:51:01.444Z,24.06
2022-08-07T21:11:01.415Z,24.18
2022-08-07T21:31:01.386Z,24.06
2022-08-07T21:51:01.352Z,24.00
2022-08-07T22:11:01.324Z,24.00
2022-08-07T22:31:01.328Z,24.12
2022-08-07T22:51:01.283Z,23.93
2022-08-07T23:11:01.267Z,23.87
2022-08-07T23:31:01.221Z,23.93
2022-08-07T23:51:01.187Z,24.12
